Time;durP1;ratioP1;P1;durP2;ratioP2;P2;SDS_P1;SDS_P2;PMS_P1;PMS_P2;Temp;Humidity;BMP_temperature;BMP_pressure;BME280_temperature;BME280_humidity;BME280_pressure;Samples;Min_cycle;Max_cycle;Signal;HPM_P1;HPM_P2
2023/05/18 00:02:14;;;;;;;48.92;46.53;;;;;;;20.81;36.26;102682.59;5074943;28;20464;-74
2023/05/18 00:04:40;;;;;;;50.53;48.03;;;;;;;20.78;36.38;102677.63;5057324;28;20119;-73
2023/05/18 00:07:06;;;;;;;47.70;45.25;;;;;;;20.74;36.54;102675.41;5057384;28;20036;-74
2023/05/18 00:09:34;;;;;;;49.00;46.60;;;;;;;20.72;36.27;102676.78;5056985;28;20067;-74
2023/05/18 00:12:00;;;;;;;48.17;45.80;;;;;;;20.69;36.25;102680.06;5074537;28;20093;-74
2023/05/18 00:14:26;;;;;;;52.13;49.35;;;;;;;20.64;36.60;102678.09;5074260;28;20526;-74
2023/05/18 00:16:55;;;;;;;48.80;46.35;;;;;;;20.62;36.58;102673.97;5074104;28;20025;-74
2023/05/18 00:19:22;;;;;;;49.70;47.22;;;;;;;20.59;36.44;102678.06;5074199;28;20119;-74
2023/05/18 00:21:50;;;;;;;47.30;44.90;;;;;;;20.56;36.68;102684.06;5074319;28;20028;-74
2023/05/18 00:24:16;;;;;;;49.50;47.00;;;;;;;20.51;36.31;102676.59;5074144;28;20035;-74
2023/05/18 00:26:44;;;;;;;48.40;46.10;;;;;;;20.48;36.41;102679.03;5074750;28;20028;-74
2023/05/18 00:29:10;;;;;;;48.58;46.08;;;;;;;20.45;36.39;102676.81;5074155;28;20173;-74
2023/05/18 00:31:37;;;;;;;46.00;43.47;;;;;;;20.43;36.66;102676.25;5056392;28;20481;-74
2023/05/18 00:34:06;;;;;;;46.58;44.35;;;;;;;20.38;36.20;102679.75;5074038;28;20033;-74
2023/05/18 00:36:31;;;;;;;;;;;;;;;20.40;36.30;102682.25;5056451;28;20025;-73
2023/05/18 00:38:58;;;;;;;47.70;45.40;;;;;;;20.30;36.50;102681.06;5074012;28;20364;-74
2023/05/18 00:41:25;;;;;;;48.60;46.20;;;;;;;20.25;36.52;102685.69;5055850;28;20035;-73
2023/05/18 00:43:51;;;;;;;45.22;42.72;;;;;;;20.24;36.84;102681.31;5055978;28;20113;-73
2023/05/18 00:46:16;;;;;;;47.17;44.67;;;;;;;20.21;36.79;102681.81;5073788;28;20032;-73
2023/05/18 00:48:42;;;;;;;47.40;45.03;;;;;;;20.16;36.58;102685.34;5073785;28;20085;-74
2023/05/18 00:51:08;;;;;;;45.33;43.13;;;;;;;20.13;36.75;102683.09;5073790;28;20040;-74
2023/05/18 00:53:34;;;;;;;47.28;44.97;;;;;;;20.10;36.69;102675.41;5056263;28;20432;-73
2023/05/18 00:56:00;;;;;;;45.60;43.30;;;;;;;20.08;36.89;102672.94;5056078;28;20415;-73
2023/05/18 00:58:25;;;;;;;46.70;44.22;;;;;;;20.05;36.94;102680.84;5073575;28;20033;-73
2023/05/18 01:00:51;;;;;;;45.55;43.25;;;;;;;20.02;36.85;102679.44;5055297;28;20028;-73
2023/05/18 01:03:19;;;;;;;48.92;46.22;;;;;;;20.00;36.83;102678.03;5073605;28;20032;-73
2023/05/18 01:05:48;;;;;;;44.95;42.55;;;;;;;19.98;36.93;102680.22;5073587;28;20040;-73
2023/05/18 01:08:15;;;;;;;45.25;43.05;;;;;;;19.94;36.85;102681.84;5073511;28;20036;-73
2023/05/18 01:10:44;;;;;;;46.42;44.15;;;;;;;19.91;37.09;102683.19;5073566;28;20082;-73
2023/05/18 01:13:19;;;;;;;44.22;41.92;;;;;;;19.88;36.74;102683.69;5073480;28;20028;-73
2023/05/18 01:15:51;;;;;;;45.22;42.83;;;;;;;19.85;36.60;102689.69;5073898;28;20045;-73
2023/05/18 01:18:37;;;;;;;44.78;42.65;;;;;;;19.80;36.57;102690.44;5073386;28;20032;-73
2023/05/18 01:21:18;;;;;;;44.30;42.20;;;;;;;19.77;36.66;102692.91;5073676;28;20024;-73
2023/05/18 01:24:02;;;;;;;44.03;41.55;;;;;;;19.72;36.85;102681.88;5073440;28;20034;-73
2023/05/18 01:26:30;;;;;;;43.25;41.05;;;;;;;19.68;36.76;102689.78;5073330;28;20020;-74
2023/05/18 01:28:59;;;;;;;47.30;45.08;;;;;;;19.66;36.91;102689.19;5073686;28;20025;-74
2023/05/18 01:31:25;;;;;;;46.45;43.88;;;;;;;19.64;36.79;102688.59;5073189;28;20078;-74
2023/05/18 01:33:51;;;;;;;44.13;41.72;;;;;;;19.61;36.53;102689.13;5055526;28;20060;-73
2023/05/18 01:36:16;;;;;;;44.08;41.78;;;;;;;19.58;36.98;102687.72;5073233;28;20111;-73
2023/05/18 01:38:41;;;;;;;44.05;41.75;;;;;;;19.55;36.64;102693.69;5073517;28;20116;-74
2023/05/18 01:41:17;;;;;;;45.72;43.17;;;;;;;19.52;36.97;102690.66;5073106;28;20051;-74
2023/05/18 01:43:54;;;;;;;42.58;40.33;;;;;;;19.50;36.95;102687.34;5074027;28;20032;-74
2023/05/18 01:46:49;;;;;;;42.40;40.13;;;;;;;19.45;36.72;102688.94;5073459;28;20060;-72
2023/05/18 01:49:55;;;;;;;42.90;40.80;;;;;;;19.43;36.82;102695.78;5073474;28;20024;-73
2023/05/18 01:52:33;;;;;;;43.60;41.25;;;;;;;19.38;36.90;102687.47;5055172;28;20539;-73
2023/05/18 01:55:02;;;;;;;42.78;40.25;;;;;;;19.33;36.74;102687.41;5054911;28;20029;-73
2023/05/18 01:57:28;;;;;;;;;;;;;;;19.35;36.84;102685.22;5073596;28;20051;-73
2023/05/18 01:59:54;;;;;;;41.78;39.33;;;;;;;19.27;36.82;102686.50;5073281;28;19912;-73
2023/05/18 02:02:20;;;;;;;41.53;39.38;;;;;;;19.23;37.02;102682.63;5073353;28;20068;-73
2023/05/18 02:04:45;;;;;;;43.15;40.67;;;;;;;19.21;36.96;102684.78;5073157;28;20406;-74
2023/05/18 02:07:10;;;;;;;41.58;39.47;;;;;;;19.18;36.97;102682.56;5055006;28;20500;-73
2023/05/18 02:09:36;;;;;;;43.30;41.10;;;;;;;19.17;36.86;102689.09;5054953;28;20031;-73
2023/05/18 02:12:01;;;;;;;42.20;39.90;;;;;;;19.15;36.83;102688.53;5073496;28;20056;-73
2023/05/18 02:14:27;;;;;;;42.90;40.70;;;;;;;19.13;36.89;102687.97;5072543;28;20087;-73
2023/05/18 02:16:52;;;;;;;41.65;39.53;;;;;;;19.10;37.20;102683.81;5073556;28;20025;-73
2023/05/18 02:19:19;;;;;;;42.90;40.80;;;;;;;19.07;36.86;102680.75;5054877;28;20043;-73
2023/05/18 02:21:44;;;;;;;41.97;39.88;;;;;;;19.05;36.88;102682.91;5073503;28;20086;-73
2023/05/18 02:24:11;;;;;;;42.85;40.38;;;;;;;19.02;37.29;102676.03;5072719;28;20377;-73
2023/05/18 02:26:36;;;;;;;42.13;39.92;;;;;;;18.99;36.76;102671.88;5054708;28;20028;-73
2023/05/18 02:29:05;;;;;;;41.05;39.05;;;;;;;18.97;36.83;102674.03;5072563;28;20074;-74
2023/05/18 02:31:31;;;;;;;43.60;41.20;;;;;;;18.95;37.09;102672.63;5072667;28;20037;-73
2023/05/18 02:33:57;;;;;;;40.78;38.78;;;;;;;18.92;36.95;102665.75;5054731;28;20085;-75
2023/05/18 02:36:22;;;;;;;42.33;40.13;;;;;;;18.90;37.06;102678.03;5072920;28;20116;-74
2023/05/18 02:38:48;;;;;;;41.55;39.55;;;;;;;18.87;37.24;102659.38;5054536;28;20036;-74
2023/05/18 02:41:13;;;;;;;42.55;40.45;;;;;;;18.85;37.00;102669.75;5039445;28;20032;-75
2023/05/18 02:43:39;;;;;;;42.58;40.05;;;;;;;18.82;37.03;102671.09;5076232;28;20498;-74
2023/05/18 02:46:05;;;;;;;39.88;37.75;;;;;;;18.80;37.15;102665.06;5058710;28;20028;-74
2023/05/18 02:48:30;;;;;;;43.53;41.35;;;;;;;18.78;37.18;102669.94;5076136;28;20024;-73
2023/05/18 02:50:56;;;;;;;41.25;39.13;;;;;;;18.74;37.05;102666.81;5057964;28;20032;-73
2023/05/18 02:53:21;;;;;;;41.75;39.45;;;;;;;18.72;37.42;102668.16;5076074;28;20074;-75
2023/05/18 02:55:47;;;;;;;41.28;39.00;;;;;;;18.71;36.92;102666.50;5076012;28;20055;-74
2023/05/18 02:58:13;;;;;;;40.78;38.78;;;;;;;18.67;37.07;102673.56;5057807;28;20480;-74
2023/05/18 03:00:40;;;;;;;43.17;40.67;;;;;;;18.66;37.51;102672.72;5058352;28;20059;-74
2023/05/18 03:03:05;;;;;;;40.72;38.33;;;;;;;18.63;37.31;102670.50;5058047;28;20103;-74
2023/05/18 03:05:31;;;;;;;41.30;39.00;;;;;;;18.60;37.14;102666.34;5057802;28;20468;-74
2023/05/18 03:07:57;;;;;;;40.53;38.53;;;;;;;18.58;37.31;102674.00;5058079;28;20033;-73
2023/05/18 03:10:22;;;;;;;42.13;39.67;;;;;;;18.56;37.16;102665.19;5075764;28;20467;-74
2023/05/18 03:12:48;;;;;;;40.38;38.17;;;;;;;18.52;37.11;102663.19;5058258;28;20060;-74
2023/05/18 03:15:14;;;;;;;40.13;38.03;;;;;;;18.51;37.28;102667.03;5057524;28;20472;-74
2023/05/18 03:17:41;;;;;;;39.35;37.15;;;;;;;18.48;37.18;102665.63;5057970;28;20049;-73
2023/05/18 03:20:13;;;;;;;40.25;38.15;;;;;;;18.45;37.31;102665.28;5075619;28;20475;-73
2023/05/18 03:22:39;;;;;;;41.05;38.95;;;;;;;18.42;37.09;102661.16;5075968;28;20078;-74
2023/05/18 03:25:05;;;;;;;40.63;38.50;;;;;;;18.39;37.08;102656.16;5075536;28;20032;-73
2023/05/18 03:27:30;;;;;;;40.90;38.78;;;;;;;18.39;37.48;102667.09;5075622;28;20460;-73
2023/05/18 03:29:56;;;;;;;39.88;37.78;;;;;;;18.36;37.39;102668.44;5057488;28;20055;-74
2023/05/18 03:32:27;;;;;;;39.90;37.80;;;;;;;18.35;37.12;102672.25;5057566;28;20032;-74
2023/05/18 03:34:53;;;;;;;39.25;37.33;;;;;;;18.33;37.39;102671.66;5075655;28;20585;-74
2023/05/18 03:37:18;;;;;;;42.40;40.20;;;;;;;18.30;37.41;102671.34;5075815;28;20457;-74
2023/05/18 03:39:44;;;;;;;40.00;37.67;;;;;;;18.28;37.41;102671.56;5075205;28;20037;-74
2023/05/18 03:42:09;;;;;;;40.30;38.35;;;;;;;18.26;37.23;102665.50;5075169;28;20101;-74
2023/05/18 03:44:35;;;;;;;39.47;37.35;;;;;;;18.23;37.15;102668.75;5057320;28;20032;-74
2023/05/18 03:47:00;;;;;;;37.92;36.00;;;;;;;18.21;37.17;102670.06;5075186;28;20040;-74
2023/05/18 03:49:26;;;;;;;39.50;37.50;;;;;;;18.18;37.45;102676.88;5074803;28;20032;-74
2023/05/18 03:51:53;;;;;;;38.28;36.38;;;;;;;18.15;37.19;102670.00;5075712;28;20038;-74
2023/05/18 03:54:19;;;;;;;39.92;37.35;;;;;;;18.13;37.40;102668.56;5075515;28;20579;-74
2023/05/18 03:56:45;;;;;;;40.45;38.05;;;;;;;18.11;37.38;102677.03;5075212;28;20032;-74
2023/05/18 03:59:11;;;;;;;40.58;38.00;;;;;;;18.09;37.43;102675.59;5074788;28;20115;-74
2023/05/18 04:01:37;;;;;;;39.30;37.05;;;;;;;18.07;37.53;102678.59;5074725;28;20112;-75
2023/05/18 04:04:02;;;;;;;38.85;36.85;;;;;;;18.06;37.44;102679.66;5040631;28;20380;-74
2023/05/18 04:06:28;;;;;;;40.92;38.70;;;;;;;18.02;37.39;102681.25;5074687;28;20488;-73
2023/05/18 04:08:54;;;;;;;38.17;36.17;;;;;;;18.01;37.34;102673.28;5074630;28;20455;-74
2023/05/18 04:11:21;;;;;;;37.35;35.55;;;;;;;17.97;37.68;102681.16;5056680;28;20044;-73
2023/05/18 04:13:46;;;;;;;37.97;35.45;;;;;;;17.96;37.29;102687.69;5074522;28;20029;-74
2023/05/18 04:16:12;;;;;;;36.38;34.58;;;;;;;17.94;37.39;102687.09;5056739;28;20475;-74
2023/05/18 04:18:40;;;;;;;39.72;37.63;;;;;;;17.92;37.31;102687.34;5074721;28;20091;-74
2023/05/18 04:21:06;;;;;;;35.00;33.28;;;;;;;17.89;37.34;102687.00;5056493;28;20434;-74
2023/05/18 04:23:37;;;;;;;36.10;34.20;;;;;;;17.87;37.16;102687.25;5074340;28;20460;-74
2023/05/18 04:26:04;;;;;;;35.92;34.20;;;;;;;17.84;37.75;102681.44;5075090;28;20028;-74
2023/05/18 04:28:30;;;;;;;36.15;34.25;;;;;;;17.82;37.45;102689.06;5074336;28;20036;-74
2023/05/18 04:30:55;;;;;;;36.65;34.75;;;;;;;17.81;37.42;102692.84;5074173;28;20361;-74
2023/05/18 04:33:21;;;;;;;38.00;36.20;;;;;;;17.78;37.63;102688.69;5056427;28;20028;-75
2023/05/18 04:35:47;;;;;;;36.95;34.85;;;;;;;17.77;37.60;102694.41;5073778;28;20032;-74
2023/05/18 04:38:15;;;;;;;34.83;33.03;;;;;;;17.74;37.63;102696.56;5073776;28;20396;-74
2023/05/18 04:40:41;;;;;;;36.75;34.85;;;;;;;17.73;37.67;102697.59;5073933;28;20044;-75
2023/05/18 04:43:07;;;;;;;38.88;36.88;;;;;;;17.71;37.71;102696.19;5056175;28;20380;-75
2023/05/18 04:45:32;;;;;;;36.30;34.50;;;;;;;17.69;37.83;102699.19;5056618;28;20035;-75
2023/05/18 04:47:58;;;;;;;37.15;35.25;;;;;;;17.66;37.64;102694.19;5073794;28;20496;-74
2023/05/18 04:50:23;;;;;;;37.28;35.28;;;;;;;17.66;37.49;102712.47;5074127;28;20037;-74
2023/05/18 04:52:50;;;;;;;36.53;34.63;;;;;;;17.63;37.42;102710.25;5055787;28;20119;-74
2023/05/18 04:55:26;;;;;;;35.78;33.97;;;;;;;17.61;37.91;102706.91;5074191;28;20522;-74
2023/05/18 04:57:55;;;;;;;36.92;35.03;;;;;;;17.59;37.77;102714.53;5073829;28;20039;-75
2023/05/18 05:00:23;;;;;;;35.70;33.70;;;;;;;17.56;37.53;102707.63;5073718;28;20487;-74
2023/05/18 05:02:49;;;;;;;36.20;34.35;;;;;;;17.57;37.47;102713.97;5073581;28;20029;-74
2023/05/18 05:05:15;;;;;;;35.45;33.45;;;;;;;17.53;37.61;102711.69;5073240;28;20032;-73
2023/05/18 05:07:40;;;;;;;35.22;33.45;;;;;;;17.52;37.64;102711.94;5074073;28;20364;-74
2023/05/18 05:10:06;;;;;;;33.15;31.55;;;;;;;17.50;37.55;102712.16;5056077;28;20036;-73
2023/05/18 05:12:32;;;;;;;34.88;32.92;;;;;;;17.49;37.65;102718.72;5056214;28;20033;-74
2023/05/18 05:14:57;;;;;;;37.70;35.25;;;;;;;17.47;37.98;102715.41;5073568;28;20488;-75
2023/05/18 05:17:23;;;;;;;36.83;34.70;;;;;;;17.46;37.74;102711.00;5074090;28;20043;-75
2023/05/18 05:19:48;;;;;;;37.55;35.53;;;;;;;17.45;37.53;102713.97;5039359;28;20113;-74
2023/05/18 05:22:14;;;;;;;34.08;32.10;;;;;;;17.44;37.48;102710.41;5073827;28;20452;-74
2023/05/18 05:24:40;;;;;;;33.85;32.05;;;;;;;17.43;37.54;102711.47;5073910;28;20086;-74
2023/05/18 05:27:05;;;;;;;35.15;33.35;;;;;;;17.43;37.69;102713.38;5073746;28;20477;-73
2023/05/18 05:29:31;;;;;;;33.22;31.42;;;;;;;17.41;37.65;102707.31;5055503;28;20494;-74
2023/05/18 05:31:56;;;;;;;34.28;32.58;;;;;;;17.41;37.56;102713.63;5073306;28;20086;-74
2023/05/18 05:34:21;;;;;;;33.80;32.17;;;;;;;17.41;37.65;102715.50;5073276;28;20033;-73
2023/05/18 05:36:47;;;;;;;34.53;32.72;;;;;;;17.41;37.57;102712.78;5073265;28;20476;-73
2023/05/18 05:39:12;;;;;;;34.40;32.70;;;;;;;17.38;37.75;102716.81;5073259;28;20032;-73
2023/05/18 05:41:38;;;;;;;34.15;32.42;;;;;;;17.38;37.54;102714.09;5038625;28;20388;-73
2023/05/18 05:44:04;;;;;;;36.45;34.45;;;;;;;17.38;37.65;102710.53;5073490;28;20090;-74
2023/05/18 05:46:29;;;;;;;34.75;32.90;;;;;;;17.36;37.57;102713.53;5073543;28;20095;-74
2023/05/18 05:48:55;;;;;;;36.60;34.45;;;;;;;17.36;37.74;102705.34;5073417;28;20036;-75
2023/05/18 05:51:20;;;;;;;33.40;31.67;;;;;;;17.37;37.78;102706.16;5073307;28;20051;-74
2023/05/18 05:53:48;;;;;;;34.03;32.22;;;;;;;17.37;37.77;102714.34;5055521;28;20381;-74
2023/05/18 05:56:13;;;;;;;34.33;32.40;;;;;;;17.36;37.75;102707.22;5073465;28;20044;-74
2023/05/18 05:58:40;;;;;;;34.75;32.53;;;;;;;17.34;37.93;102715.66;5055122;28;20033;-74
2023/05/18 06:01:07;;;;;;;35.30;33.40;;;;;;;17.35;37.66;102711.03;5054963;28;20064;-74
2023/05/18 06:03:33;;;;;;;32.70;31.10;;;;;;;17.35;37.69;102713.75;5073018;28;20109;-73
2023/05/18 06:05:58;;;;;;;34.58;32.65;;;;;;;17.35;37.66;102708.28;5073238;28;20468;-74
2023/05/18 06:08:24;;;;;;;33.65;31.85;;;;;;;17.35;37.81;102711.03;5054688;28;20115;-73
2023/05/18 06:10:50;;;;;;;37.38;35.47;;;;;;;17.33;37.74;102711.25;5072922;28;20036;-73
2023/05/18 06:13:15;;;;;;;33.40;31.60;;;;;;;17.34;37.60;102718.41;5072611;28;20531;-73
2023/05/18 06:15:41;;;;;;;33.97;32.28;;;;;;;17.33;37.98;102722.19;5055041;28;20041;-74
2023/05/18 06:18:07;;;;;;;34.30;32.40;;;;;;;17.33;37.60;102718.63;5058776;28;20044;-74
2023/05/18 06:20:32;;;;;;;34.20;32.35;;;;;;;17.34;37.95;102723.00;5058909;28;20115;-74
2023/05/18 06:22:58;;;;;;;34.67;32.72;;;;;;;17.34;37.74;102721.13;5076674;28;20127;-75
2023/05/18 06:25:23;;;;;;;36.92;34.97;;;;;;;17.33;37.50;102729.56;5058736;28;20028;-74
2023/05/18 06:27:49;;;;;;;34.92;33.03;;;;;;;17.33;37.43;102715.91;5058461;28;20035;-75
2023/05/18 06:30:14;;;;;;;35.50;33.40;;;;;;;17.33;37.68;102724.91;5058539;28;20469;-74
2023/05/18 06:32:40;;;;;;;34.15;32.22;;;;;;;17.33;37.75;102724.91;5076475;28;20036;-75
2023/05/18 06:35:06;;;;;;;34.47;32.67;;;;;;;17.33;37.70;102726.81;5041571;28;20055;-74
2023/05/18 06:37:32;;;;;;;36.35;34.35;;;;;;;17.34;37.81;102723.00;5058933;28;20028;-75
2023/05/18 06:39:57;;;;;;;36.63;33.90;;;;;;;17.34;37.75;102718.41;5058283;28;20028;-74
2023/05/18 06:42:23;;;;;;;35.70;33.80;;;;;;;17.33;37.76;102721.34;5058489;28;20099;-74
2023/05/18 06:44:50;;;;;;;37.95;35.58;;;;;;;17.34;37.75;102721.13;5058752;28;20033;-73
2023/05/18 06:47:15;;;;;;;35.13;33.33;;;;;;;17.34;37.65;102721.13;5076070;28;20106;-74
2023/05/18 06:49:41;;;;;;;36.63;34.72;;;;;;;17.36;37.54;102723.59;5058230;28;20430;-74
2023/05/18 06:52:08;;;;;;;34.88;32.95;;;;;;;17.33;37.52;102724.09;5076309;28;20530;-74
2023/05/18 06:54:37;;;;;;;36.45;34.55;;;;;;;17.32;37.83;102727.91;5058838;28;20115;-74
2023/05/18 06:57:02;;;;;;;35.10;33.20;;;;;;;17.33;37.69;102733.09;5075625;28;20468;-74
2023/05/18 06:59:28;;;;;;;36.63;34.53;;;;;;;17.34;37.54;102736.66;5075995;28;20043;-74
2023/05/18 07:01:53;;;;;;;35.75;33.75;;;;;;;17.34;37.79;102747.59;5076022;28;20036;-74
2023/05/18 07:04:19;;;;;;;34.78;32.88;;;;;;;17.33;38.22;102740.47;5058599;28;20036;-74
2023/05/18 07:06:47;;;;;;;32.75;31.05;;;;;;;17.34;37.88;102739.41;5075900;28;20384;-74
2023/05/18 07:09:13;;;;;;;34.22;32.22;;;;;;;17.36;37.72;102746.31;5057828;28;20037;-75
2023/05/18 07:11:44;;;;;;;34.20;32.40;;;;;;;17.37;38.19;102741.66;5076293;28;20033;-75
2023/05/18 07:14:09;;;;;;;34.50;32.72;;;;;;;17.38;38.04;102744.16;5076081;28;20369;-75
2023/05/18 07:16:35;;;;;;;35.65;33.75;;;;;;;17.40;37.90;102739.28;5040810;28;20079;-75
2023/05/18 07:19:02;;;;;;;35.83;33.85;;;;;;;17.40;38.17;102742.00;5057628;28;20044;-75
2023/05/18 07:21:28;;;;;;;35.97;33.97;;;;;;;17.42;37.91;102744.50;5075176;28;20494;-75
2023/05/18 07:23:53;;;;;;;34.90;33.13;;;;;;;17.41;38.02;102746.41;5057887;28;20036;-75
2023/05/18 07:26:19;;;;;;;34.67;32.95;;;;;;;17.41;38.41;102746.41;5075043;28;20395;-74
2023/05/18 07:28:44;;;;;;;34.65;32.50;;;;;;;17.42;38.24;102749.97;5075102;28;20485;-74
2023/05/18 07:31:10;;;;;;;37.08;35.10;;;;;;;17.42;38.64;102750.81;5057359;28;20407;-74
2023/05/18 07:33:35;;;;;;;34.15;32.55;;;;;;;17.44;38.70;102753.31;5075574;28;20506;-75
2023/05/18 07:36:01;;;;;;;34.35;32.47;;;;;;;17.45;38.62;102750.31;5075169;28;20033;-74
2023/05/18 07:38:27;;;;;;;36.08;34.30;;;;;;;17.46;38.95;102759.34;5075159;28;20093;-75
2023/05/18 07:40:52;;;;;;;33.85;32.20;;;;;;;17.49;38.86;102758.88;5075313;28;20050;-74
2023/05/18 07:43:17;;;;;;;36.80;34.80;;;;;;;17.52;38.72;102761.94;5040648;28;20116;-74
2023/05/18 07:45:43;;;;;;;35.33;33.47;;;;;;;17.55;38.72;102760.63;5075307;28;20037;-75
2023/05/18 07:48:08;;;;;;;36.85;34.65;;;;;;;17.58;38.75;102762.88;5057318;28;20036;-74
2023/05/18 07:50:34;;;;;;;34.83;32.72;;;;;;;17.60;38.96;102766.22;5057103;28;20107;-74
2023/05/18 07:52:59;;;;;;;34.47;32.58;;;;;;;17.62;38.71;102764.06;5074500;28;20041;-76
2023/05/18 07:55:25;;;;;;;36.13;33.95;;;;;;;17.66;38.74;102773.44;5056685;28;20040;-76
2023/05/18 07:57:51;;;;;;;34.47;32.78;;;;;;;17.67;39.26;102771.56;5056680;28;20068;-76
2023/05/18 08:00:17;;;;;;;36.17;33.92;;;;;;;17.69;38.70;102775.72;5056373;28;20036;-74
2023/05/18 08:02:44;;;;;;;34.50;32.72;;;;;;;17.69;39.09;102770.25;5057073;28;20361;-74
2023/05/18 08:05:09;;;;;;;37.03;34.85;;;;;;;17.74;39.22;102781.28;5074644;28;20037;-75
2023/05/18 08:07:35;;;;;;;39.35;37.13;;;;;;;17.78;39.45;102776.16;5074401;28;20033;-75
2023/05/18 08:10:01;;;;;;;37.63;35.33;;;;;;;17.81;39.23;102766.66;5039665;28;20127;-74
2023/05/18 08:12:28;;;;;;;36.53;34.55;;;;;;;17.84;39.46;102775.22;5074561;28;20033;-74
2023/05/18 08:14:54;;;;;;;38.55;36.40;;;;;;;17.89;39.28;102774.47;5056774;28;20149;-74
2023/05/18 08:17:19;;;;;;;36.50;34.53;;;;;;;17.93;39.45;102767.47;5057221;28;20032;-74
2023/05/18 08:19:46;;;;;;;36.97;34.95;;;;;;;17.96;39.45;102769.72;5075134;28;20464;-73
2023/05/18 08:22:12;;;;;;;37.95;35.75;;;;;;;18.02;39.36;102763.28;5074439;28;20380;-75
2023/05/18 08:24:37;;;;;;;38.30;36.30;;;;;;;18.06;39.25;102778.13;5074507;28;20082;-73
2023/05/18 08:27:05;;;;;;;37.70;35.60;;;;;;;18.10;39.64;102771.09;5056147;28;20464;-75
2023/05/18 08:29:34;;;;;;;37.63;35.53;;;;;;;18.15;39.26;102764.91;5073828;28;20066;-73
2023/05/18 08:31:59;;;;;;;37.75;35.50;;;;;;;18.18;39.31;102764.41;5074041;28;20028;-73
2023/05/18 08:34:24;;;;;;;41.55;38.97;;;;;;;18.21;39.44;102757.59;5056136;28;20033;-74
2023/05/18 08:36:51;;;;;;;38.20;35.97;;;;;;;18.27;39.53;102760.19;5056072;28;20075;-73
2023/05/18 08:39:16;;;;;;;38.00;35.17;;;;;;;18.33;39.37;102761.94;5055660;28;20104;-72
2023/05/18 08:41:54;;;;;;;38.42;35.85;;;;;;;18.37;38.92;102749.44;5055803;28;20491;-74
2023/05/18 08:44:21;;;;;;;34.80;33.00;;;;;;;18.40;39.19;102759.06;5074710;28;20066;-73
2023/05/18 08:46:50;;;;;;;36.22;34.33;;;;;;;18.42;39.32;102754.19;5056805;28;20029;-74
2023/05/18 08:49:20;;;;;;;38.42;36.05;;;;;;;18.47;39.29;102748.81;5074067;28;20029;-74
2023/05/18 08:51:53;;;;;;;38.05;35.92;;;;;;;18.53;39.13;102744.22;5073736;28;20074;-73
2023/05/18 08:54:20;;;;;;;38.42;36.20;;;;;;;18.56;39.27;102741.81;5073453;28;20040;-74
2023/05/18 08:56:46;;;;;;;38.60;36.50;;;;;;;18.62;39.15;102741.91;5073821;28;20162;-74
2023/05/18 08:59:15;;;;;;;38.05;36.00;;;;;;;18.64;39.77;102740.56;5073640;28;20469;-73
2023/05/18 09:01:41;;;;;;;37.03;34.85;;;;;;;18.71;39.09;102744.00;5073676;28;20100;-74
2023/05/18 09:04:08;;;;;;;40.50;38.30;;;;;;;18.74;39.63;102740.75;5055795;28;20040;-74
2023/05/18 09:06:34;;;;;;;39.53;37.10;;;;;;;18.80;39.77;102742.53;5073533;28;20095;-75
2023/05/18 09:09:03;;;;;;;38.30;36.00;;;;;;;18.84;39.85;102740.13;5055365;28;20480;-74
2023/05/18 09:11:30;;;;;;;38.80;36.80;;;;;;;18.92;39.66;102736.13;5056188;28;20114;-75
2023/05/18 09:13:58;;;;;;;39.95;37.85;;;;;;;18.96;39.94;102738.13;5073550;28;20093;-75
2023/05/18 09:16:23;;;;;;;38.88;37.00;;;;;;;19.01;40.17;102740.94;5073386;28;20376;-75
2023/05/18 09:18:49;;;;;;;39.10;37.17;;;;;;;19.05;39.88;102732.22;5073833;28;20448;-75
2023/05/18 09:21:14;;;;;;;43.03;40.63;;;;;;;19.11;40.11;102736.69;5073319;28;20036;-75
2023/05/18 09:23:40;;;;;;;40.17;37.85;;;;;;;19.15;39.82;102741.44;5073431;28;20063;-75
2023/05/18 09:26:10;;;;;;;40.85;38.83;;;;;;;19.21;39.91;102740.41;5055640;28;20032;-75
2023/05/18 09:28:40;;;;;;;40.35;38.25;;;;;;;19.23;40.57;102735.50;5073367;28;20479;-75
2023/05/18 09:31:08;;;;;;;41.72;39.33;;;;;;;19.31;40.09;102736.97;5073338;28;20032;-75
2023/05/18 09:33:37;;;;;;;40.97;38.47;;;;;;;19.38;39.78;102732.16;5055566;28;20028;-78
2023/05/18 09:36:07;;;;;;;40.65;38.60;;;;;;;19.43;39.76;102726.72;5073495;28;20032;-77
2023/05/18 09:38:45;;;;;;;41.33;39.13;;;;;;;19.46;40.03;102722.66;5073309;28;20107;-73
2023/05/18 09:41:16;;;;;;;40.97;38.77;;;;;;;19.51;40.40;102728.19;5073101;28;20036;-74
2023/05/18 09:43:42;;;;;;;44.33;41.90;;;;;;;19.59;40.29;102715.97;5073832;28;20280;-77
2023/05/18 09:46:09;;;;;;;43.50;41.20;;;;;;;19.61;39.47;102720.09;5072860;28;20115;-75
2023/05/18 09:48:36;;;;;;;43.40;40.50;;;;;;;19.68;39.56;102722.69;5055208;28;20032;-76
2023/05/18 09:51:05;;;;;;;44.03;41.63;;;;;;;19.72;39.87;102725.75;5076238;28;20036;-75
2023/05/18 09:53:33;;;;;;;42.03;39.92;;;;;;;19.74;40.24;102732.63;5076928;28;20040;-75
2023/05/18 09:56:05;;;;;;;44.80;42.42;;;;;;;19.81;39.66;102727.78;5059664;28;20186;-72
2023/05/18 09:58:32;;;;;;;44.33;42.00;;;;;;;19.88;39.40;102722.06;5077164;28;20090;-77
2023/05/18 10:01:00;;;;;;;44.65;42.33;;;;;;;19.92;39.26;102714.19;5076996;28;20028;-75
2023/05/18 10:03:31;;;;;;;43.17;40.90;;;;;;;19.96;39.68;102712.56;5077403;28;20077;-75
2023/05/18 10:06:02;;;;;;;44.13;41.92;;;;;;;20.01;39.59;102723.63;5077076;28;20024;-74
2023/05/18 10:08:27;;;;;;;44.13;41.83;;;;;;;20.04;39.65;102720.34;5076622;28;20034;-75
2023/05/18 10:10:53;;;;;;;44.42;42.22;;;;;;;20.08;39.77;102714.09;5058897;28;20495;-74
2023/05/18 10:13:19;;;;;;;47.67;44.72;;;;;;;20.12;39.96;102714.38;5076775;28;20037;-74
2023/05/18 10:15:54;;;;;;;45.45;43.15;;;;;;;20.22;39.90;102713.66;5076421;28;20052;-74
2023/05/18 10:18:26;;;;;;;47.42;44.92;;;;;;;20.25;39.74;102713.97;5077079;28;20044;-75
2023/05/18 10:20:54;;;;;;;44.75;42.45;;;;;;;20.28;39.87;102709.88;5059043;28;20051;-75
2023/05/18 10:23:22;;;;;;;46.53;43.97;;;;;;;20.37;39.87;102707.50;5076694;28;20024;-75
2023/05/18 10:25:49;;;;;;;47.95;45.45;;;;;;;20.44;39.58;102697.13;5076692;28;20043;-75
2023/05/18 10:28:27;;;;;;;47.53;45.10;;;;;;;20.50;39.24;102707.88;5076296;28;20097;-79
2023/05/18 10:30:55;;;;;;;45.45;43.05;;;;;;;20.57;39.50;102696.69;5076943;28;20029;-75
2023/05/18 10:33:26;;;;;;;47.63;45.20;;;;;;;20.64;39.67;102693.75;5076478;28;20119;-75
2023/05/18 10:35:52;;;;;;;45.97;43.78;;;;;;;20.68;39.62;102687.44;5076435;28;20467;-75
2023/05/18 10:38:20;;;;;;;48.45;45.63;;;;;;;20.75;39.75;102685.28;5058391;28;20035;-76
2023/05/18 10:40:48;;;;;;;48.13;45.55;;;;;;;20.83;39.02;102683.97;5076438;28;20050;-75
2023/05/18 10:43:17;;;;;;;49.35;46.95;;;;;;;20.88;39.23;102699.66;5076299;28;20108;-75
2023/05/18 10:45:46;;;;;;;48.00;45.30;;;;;;;20.96;38.77;102683.53;5058301;28;20131;-75
2023/05/18 10:48:13;;;;;;;51.40;48.55;;;;;;;21.02;39.15;102689.88;5076061;28;20032;-71
2023/05/18 10:50:40;;;;;;;49.83;47.15;;;;;;;21.05;39.48;102686.59;5075775;28;20024;-73
2023/05/18 10:53:05;;;;;;;48.63;46.30;;;;;;;21.06;39.41;102679.97;5041828;28;20081;-75
2023/05/18 10:55:31;;;;;;;50.28;47.33;;;;;;;21.13;38.86;102688.81;5076038;28;20119;-77
2023/05/18 10:58:03;;;;;;;52.55;49.83;;;;;;;21.18;38.89;102674.28;5076128;28;20032;-76
2023/05/18 11:00:33;;;;;;;51.35;48.85;;;;;;;21.29;38.97;102677.91;5058372;28;20055;-77
2023/05/18 11:03:00;;;;;;;52.80;50.28;;;;;;;21.36;38.83;102676.56;5057709;28;20063;-78
2023/05/18 11:05:26;;;;;;;53.28;50.42;;;;;;;21.43;38.77;102664.53;5058237;28;20028;-77
2023/05/18 11:08:05;;;;;;;51.35;48.85;;;;;;;21.48;39.22;102668.13;5058136;28;20033;-77
2023/05/18 11:10:37;;;;;;;53.58;50.83;;;;;;;21.55;38.72;102667.88;5042309;28;20037;-78